Time;durP1;ratioP1;P1;durP2;ratioP2;P2;SDS_P1;SDS_P2;PMS_P1;PMS_P2;Temp;Humidity;BMP_temperature;BMP_pressure;BME280_temperature;BME280_humidity;BME280_pressure;Samples;Min_cycle;Max_cycle;Signal;HPM_P1;HPM_P2
2021/05/12 00:00:37;;;;;;;;;;;;;;;8.17;100.00;99872.03;1768153;81;20210;-81
2021/05/12 00:03:04;;;;;;;;;;;;;;;8.16;100.00;99870.36;1767950;81;20223;-80
2021/05/12 00:05:30;;;;;;;;;;;;;;;8.17;100.00;99861.27;1767694;81;20136;-79
2021/05/12 00:07:57;;;;;;;;;;;;;;;8.20;100.00;99861.46;1767845;81;20240;-79
2021/05/12 00:10:23;;;;;;;;;;;;;;;8.22;100.00;99864.00;1767765;81;20541;-79
2021/05/12 00:12:50;;;;;;;;;;;;;;;8.22;100.00;99867.53;1767683;81;20227;-79
2021/05/12 00:15:18;;;;;;;;;;;;;;;8.21;100.00;99865.83;1767844;81;20164;-79
2021/05/12 00:17:47;;;;;;;;;;;;;;;8.20;100.00;99862.81;1774886;81;20179;-79
2021/05/12 00:20:21;;;;;;;;;;;;;;;8.20;100.00;99865.98;1780955;81;20155;-79
2021/05/12 00:22:48;;;;;;;;;;;;;;;8.14;100.00;99862.95;1781090;81;20211;-78
2021/05/12 00:25:11;;;;;;;;;;;;;;;8.10;100.00;99874.19;1777364;81;20152;-79
2021/05/12 00:27:38;;;;;;;;;;;;;;;8.08;100.00;99869.47;1781454;80;20246;-77
2021/05/12 00:30:06;;;;;;;;;;;;;;;8.06;100.00;99865.59;1781189;80;20179;-79
2021/05/12 00:32:34;;;;;;;;;;;;;;;8.05;100.00;99867.09;1780560;81;20149;-78
2021/05/12 00:35:00;;;;;;;;;;;;;;;8.07;100.00;99861.03;1780815;80;20188;-78
2021/05/12 00:37:27;;;;;;;;;;;;;;;8.11;100.00;99870.47;1780721;81;20164;-81
2021/05/12 00:39:53;;;;;;;;;;;;;;;8.12;100.00;99864.09;1780451;80;20526;-78
2021/05/12 00:42:19;;;;;;;;;;;;;;;8.12;100.00;99866.80;1780640;81;20159;-77
2021/05/12 00:44:46;;;;;;;;;;;;;;;8.12;100.00;99872.18;1781923;79;20159;-78
2021/05/12 00:47:12;;;;;;;;;;;;;;;8.10;100.00;99869.64;1808704;79;20153;-78
2021/05/12 00:49:38;;;;;;;;;;;;;;;8.05;100.00;99867.92;1808493;79;20146;-77
2021/05/12 00:52:05;;;;;;;;;;;;;;;8.05;100.00;99879.20;1808569;79;20230;-78
2021/05/12 00:54:32;;;;;;;;;;;;;;;8.02;100.00;99882.20;1808497;79;20157;-78
2021/05/12 00:56:58;;;;;;;;;;;;;;;7.96;100.00;99887.22;1809053;79;20210;-78
2021/05/12 00:59:31;;;;;;;;;;;;;;;7.91;100.00;99876.59;1810250;79;20154;-77
2021/05/12 01:01:53;;;;;;;;;;;;;;;7.87;100.00;99875.22;1810495;79;20165;-77
2021/05/12 01:04:19;;;;;;;;;;;;;;;7.84;100.00;99875.02;1810622;79;20181;-78
2021/05/12 01:06:45;;;;;;;;;;;;;;;7.81;100.00;99869.97;1810197;79;20154;-78
2021/05/12 01:09:12;;;;;;;;;;;;;;;7.80;100.00;99868.27;1810534;79;20194;-78
2021/05/12 01:11:40;;;;;;;;;;;;;;;7.79;100.00;99874.16;1809927;79;20157;-79
2021/05/12 01:14:06;;;;;;;;;;;;;;;7.78;100.00;99872.45;1808832;79;20226;-79
2021/05/12 01:16:32;;;;;;;;;;;;;;;7.79;100.00;99877.33;1809098;79;20233;-78
2021/05/12 01:19:00;;;;;;;;;;;;;;;7.77;100.00;99881.55;1787047;80;20171;-78
2021/05/12 01:21:26;;;;;;;;;;;;;;;7.76;100.00;99870.94;1789500;80;20159;-77
2021/05/12 01:23:53;;;;;;;;;;;;;;;7.76;100.00;99873.63;1789723;80;20215;-77
2021/05/12 01:26:20;;;;;;;;;;;;;;;7.75;100.00;99872.77;1789831;80;20171;-78
2021/05/12 01:28:49;;;;;;;;;;;;;;;7.73;100.00;99873.94;1789679;80;20544;-78
2021/05/12 01:31:29;;;;;;;;;;;;;;;7.71;100.00;99875.95;1789842;80;20155;-77
2021/05/12 01:33:55;;;;;;;;;;;;;;;7.71;100.00;99881.33;1789409;80;20163;-77
2021/05/12 01:36:22;;;;;;;;;;;;;;;7.70;100.00;99875.11;1763522;80;20183;-78
2021/05/12 01:38:48;;;;;;;;;;;;;;;7.70;100.00;99871.08;1787997;80;20176;-79
2021/05/12 01:41:15;;;;;;;;;;;;;;;7.72;100.00;99871.75;1787809;80;20159;-78
2021/05/12 01:43:41;;;;;;;;;;;;;;;7.73;100.00;99877.47;1787781;80;20152;-77
2021/05/12 01:46:08;;;;;;;;;;;;;;;7.72;100.00;99875.79;1784279;79;20195;-78
2021/05/12 01:48:35;;;;;;;;;;;;;;;7.71;100.00;99865.18;1781716;81;20139;-79
2021/05/12 01:51:02;;;;;;;;;;;;;;;7.72;100.00;99869.55;1781776;81;20144;-79
2021/05/12 01:53:28;;;;;;;;;;;;;;;7.74;100.00;99863.53;1781822;81;20167;-77
2021/05/12 01:55:55;;;;;;;;;;;;;;;7.76;100.00;99873.13;1781852;80;20183;-80
2021/05/12 01:58:22;;;;;;;;;;;;;;;7.77;100.00;99872.13;1781724;80;20179;-78
2021/05/12 02:00:50;;;;;;;;;;;;;;;7.79;100.00;99871.47;1781725;81;20170;-78
2021/05/12 02:03:18;;;;;;;;;;;;;;;7.82;100.00;99868.11;1781667;81;20162;-78
2021/05/12 02:05:45;;;;;;;;;;;;;;;7.83;100.00;99872.00;1781716;81;20155;-78
2021/05/12 02:08:12;;;;;;;;;;;;;;;7.84;100.00;99866.10;1781806;81;20145;-78
2021/05/12 02:10:41;;;;;;;;;;;;;;;7.84;100.00;99866.10;1782006;81;20151;-78
2021/05/12 02:13:08;;;;;;;;;;;;;;;7.86;100.00;99866.78;1781868;81;20495;-78
2021/05/12 02:15:34;;;;;;;;;;;;;;;7.89;100.00;99870.52;1781748;81;20159;-78
2021/05/12 02:18:00;;;;;;;;;;;;;;;7.92;100.00;99864.31;1781880;80;20158;-76
2021/05/12 02:20:29;;;;;;;;;;;;;;;7.96;100.00;99867.02;1781691;80;20485;-78
2021/05/12 02:22:59;;;;;;;;;;;;;;;8.01;100.00;99873.80;1736860;82;20210;-79
2021/05/12 02:25:26;;;;;;;;;;;;;;;8.02;100.00;99872.78;1737069;83;20131;-78
2021/05/12 02:27:52;;;;;;;;;;;;;;;8.03;100.00;99867.23;1736920;83;20238;-78
2021/05/12 02:30:19;;;;;;;;;;;;;;;8.04;100.00;99866.73;1736875;83;20171;-77
2021/05/12 02:32:45;;;;;;;;;;;;;;;8.04;100.00;99869.42;1737005;83;20242;-78
2021/05/12 02:35:13;;;;;;;;;;;;;;;8.01;100.00;99873.30;1737071;83;20166;-77
2021/05/12 02:37:39;;;;;;;;;;;;;;;8.01;100.00;99861.69;1736890;83;20550;-78
2021/05/12 02:40:07;;;;;;;;;;;;;;;8.00;100.00;99866.20;1737048;83;20182;-78
2021/05/12 02:42:33;;;;;;;;;;;;;;;7.99;100.00;99864.53;1712558;83;20510;-79
2021/05/12 02:45:00;;;;;;;;;;;;;;;7.95;100.00;99861.80;1734700;82;20159;-79
2021/05/12 02:47:28;;;;;;;;;;;;;;;7.95;100.00;99862.66;1713334;84;20176;-78
2021/05/12 02:49:54;;;;;;;;;;;;;;;7.95;100.00;99861.80;1713679;84;20244;-78
2021/05/12 02:52:20;;;;;;;;;;;;;;;7.93;100.00;99861.98;1713421;84;20523;-80
2021/05/12 02:54:48;;;;;;;;;;;;;;;7.94;100.00;99867.69;1713426;84;20200;-79
2021/05/12 02:57:15;;;;;;;;;;;;;;;7.94;100.00;99860.95;1713558;84;20172;-77
2021/05/12 02:59:41;;;;;;;;;;;;;;;7.93;100.00;99864.67;1713277;84;20172;-78
2021/05/12 03:02:07;;;;;;;;;;;;;;;7.97;100.00;99874.62;1713652;84;20352;-77
2021/05/12 03:04:34;;;;;;;;;;;;;;;7.96;100.00;99866.19;1713455;84;20188;-77
2021/05/12 03:07:00;;;;;;;;;;;;;;;7.97;100.00;99865.20;1713648;84;20160;-79
2021/05/12 03:09:27;;;;;;;;;;;;;;;7.97;100.00;99864.69;1713566;84;20228;-78
2021/05/12 03:11:53;;;;;;;;;;;;;;;7.93;100.00;99865.16;1713536;84;20152;-78
2021/05/12 03:14:19;;;;;;;;;;;;;;;7.94;100.00;99869.55;1713659;84;20168;-78
2021/05/12 03:16:46;;;;;;;;;;;;;;;7.93;100.00;99875.92;1717178;82;20239;-77
2021/05/12 03:19:13;;;;;;;;;;;;;;;7.90;100.00;99869.02;1759181;80;20237;-78
2021/05/12 03:21:39;;;;;;;;;;;;;;;7.92;100.00;99870.21;1804218;80;20217;-79
2021/05/12 03:24:06;;;;;;;;;;;;;;;7.90;100.00;99874.41;1804461;79;20253;-78
2021/05/12 03:26:33;;;;;;;;;;;;;;;7.89;100.00;99875.91;1804402;80;20222;-78
2021/05/12 03:28:59;;;;;;;;;;;;;;;7.90;100.00;99875.75;1804711;79;20185;-78
2021/05/12 03:31:26;;;;;;;;;;;;;;;7.91;100.00;99868.51;1804679;80;20232;-77
2021/05/12 03:33:55;;;;;;;;;;;;;;;7.92;100.00;99880.98;1804556;80;20202;-78
2021/05/12 03:36:21;;;;;;;;;;;;;;;7.94;100.00;99878.97;1804454;79;20205;-80
2021/05/12 03:38:48;;;;;;;;;;;;;;;7.93;100.00;99875.92;1804511;79;20214;-79
2021/05/12 03:41:14;;;;;;;;;;;;;;;7.91;100.00;99874.73;1804560;79;20238;-78
2021/05/12 03:43:40;;;;;;;;;;;;;;;7.90;100.00;99887.03;1804706;79;20201;-77
2021/05/12 03:46:06;;;;;;;;;;;;;;;7.87;100.00;99877.40;1792436;79;20251;-79
2021/05/12 03:48:33;;;;;;;;;;;;;;;7.85;100.00;99883.45;1783307;81;20449;-79
2021/05/12 03:50:59;;;;;;;;;;;;;;;7.83;100.00;99885.97;1784475;79;20220;-78
2021/05/12 03:53:25;;;;;;;;;;;;;;;7.83;100.00;99893.53;1784460;79;20145;-79
2021/05/12 03:55:52;;;;;;;;;;;;;;;7.83;100.00;99889.50;1785180;78;20165;-77
2021/05/12 03:58:18;;;;;;;;;;;;;;;7.85;100.00;99881.27;1784375;81;20227;-78
2021/05/12 04:00:48;;;;;;;;;;;;;;;7.91;100.00;99881.97;1782389;80;20202;-78
2021/05/12 04:03:14;;;;;;;;;;;;;;;7.99;100.00;99888.77;1782223;81;20163;-76
2021/05/12 04:05:41;;;;;;;;;;;;;;;8.08;100.00;99884.28;1782351;81;20211;-80
2021/05/12 04:08:07;;;;;;;;;;;;;;;8.15;100.00;99875.39;1782444;81;20139;-79
2021/05/12 04:10:33;;;;;;;;;;;;;;;8.26;100.00;99882.36;1782501;81;20171;-81
2021/05/12 04:13:00;;;;;;;;;;;;;;;8.32;100.00;99877.69;1782488;81;20187;-79
2021/05/12 04:15:27;;;;;;;;;;;;;;;8.35;100.00;99881.39;1782830;80;20215;-79
2021/05/12 04:17:54;;;;;;;;;;;;;;;8.35;100.00;99877.86;1782674;80;20151;-77
2021/05/12 04:20:21;;;;;;;;;;;;;;;8.33;100.00;99874.48;1782613;81;20207;-78
2021/05/12 04:22:47;;;;;;;;;;;;;;;8.33;100.00;99879.36;1782572;81;20220;-78
2021/05/12 04:25:20;;;;;;;;;;;;;;;8.39;100.00;99879.22;1782586;80;20227;-78
2021/05/12 04:27:47;;;;;;;;;;;;;;;8.45;100.00;99881.31;1782048;80;20223;-77
2021/05/12 04:30:15;;;;;;;;;;;;;;;8.51;100.00;99885.20;1782221;81;20223;-79
2021/05/12 04:32:42;;;;;;;;;;;;;;;8.58;100.00;99884.06;1782060;81;20219;-78
2021/05/12 04:35:10;;;;;;;;;;;;;;;8.62;100.00;99878.68;1781778;81;20354;-78
2021/05/12 04:37:36;;;;;;;;;;;;;;;8.61;100.00;99878.36;1782038;81;20227;-80
2021/05/12 04:40:03;;;;;;;;;;;;;;;8.61;100.00;99881.89;1781735;81;20219;-79
2021/05/12 04:42:30;;;;;;;;;;;;;;;8.65;100.00;99876.50;1781584;81;20175;-76
2021/05/12 04:44:56;;;;;;;;;;;;;;;8.71;100.00;99883.95;1781360;81;20159;-77
2021/05/12 04:47:22;;;;;;;;;;;;;;;8.77;100.00;99885.66;1781642;81;20139;-78
2021/05/12 04:49:49;;;;;;;;;;;;;;;8.82;100.00;99881.94;1781732;81;20243;-79
2021/05/12 04:52:15;;;;;;;;;;;;;;;8.86;100.00;99880.63;1781759;81;20540;-77
2021/05/12 04:54:41;;;;;;;;;;;;;;;8.93;100.00;99879.80;1782002;81;20187;-77
2021/05/12 04:57:08;;;;;;;;;;;;;;;8.95;100.00;99880.16;1781713;81;20163;-80
2021/05/12 04:59:34;;;;;;;;;;;;;;;8.92;100.00;99878.13;1782036;81;20164;-76
2021/05/12 05:02:02;;;;;;;;;;;;;;;8.88;100.00;99879.45;1781862;81;20231;-78
2021/05/12 05:04:29;;;;;;;;;;;;;;;8.86;100.00;99881.47;1781391;81;20211;-79
2021/05/12 05:06:55;;;;;;;;;;;;;;;8.84;100.00;99883.48;1781811;81;20203;-77
2021/05/12 05:09:21;;;;;;;;;;;;;;;8.87;100.00;99881.81;1781582;79;20159;-75
2021/05/12 05:11:48;;;;;;;;;;;;;;;8.93;100.00;99880.31;1781445;81;20144;-73
2021/05/12 05:14:14;;;;;;;;;;;;;;;8.99;100.00;99879.64;1781089;81;20288;-74
2021/05/12 05:16:40;;;;;;;;;;;;;;;9.04;100.00;99875.95;1781146;81;20152;-74
2021/05/12 05:19:07;;;;;;;;;;;;;;;9.08;100.00;99873.77;1781162;81;20181;-75
2021/05/12 05:21:33;;;;;;;;;;;;;;;9.10;100.00;99874.44;1781111;81;20498;-78
2021/05/12 05:23:59;;;;;;;;;;;;;;;9.15;100.00;99876.65;1785369;79;20472;-75
2021/05/12 05:26:26;;;;;;;;;;;;;;;9.20;100.00;99878.34;1748711;81;20196;-79
2021/05/12 05:28:52;;;;;;;;;;;;;;;9.28;100.00;99885.95;1718440;83;20478;-78
2021/05/12 05:31:19;;;;;;;;;;;;;;;9.37;100.00;99888.16;1733901;83;20198;-75
2021/05/12 05:34:03;;;;;;;;;;;;;;;9.44;100.00;99886.99;1732993;83;20250;-73
2021/05/12 05:36:48;;;;;;;;;;;;;;;9.53;100.00;99890.54;1733099;83;20147;-74
2021/05/12 05:39:36;;;;;;;;;;;;;;;9.58;100.00;99886.31;1713583;82;20226;-74
2021/05/12 05:42:21;;;;;;;;;;;;;;;9.62;100.00;99878.73;1739391;82;20167;-74
2021/05/12 05:45:08;;;;;;;;;;;;;;;9.66;100.00;99882.25;1739172;82;20202;-72
2021/05/12 05:47:52;;;;;;;;;;;;;;;9.75;100.00;99876.86;1790580;79;20157;-72
2021/05/12 05:50:38;;;;;;;;;;;;;;;9.82;100.00;99879.22;1803608;79;20150;-75
2021/05/12 05:53:23;;;;;;;;;;;;;;;9.85;100.00;99886.98;1781614;79;20179;-71
2021/05/12 05:56:07;;;;;;;;;;;;;;;9.84;100.00;99872.64;1781523;81;20507;-72
2021/05/12 05:58:52;;;;;;;;;;;;;;;9.80;100.00;99879.37;1780468;81;20235;-72
2021/05/12 06:01:36;;;;;;;;;;;;;;;9.85;100.00;99878.36;1781365;81;20144;-73
2021/05/12 06:04:03;;;;;;;;;;;;;;;9.96;100.00;99879.87;1781496;80;20472;-70
2021/05/12 06:06:48;;;;;;;;;;;;;;;10.07;100.00;99881.37;1781540;81;20203;-71
2021/05/12 06:09:33;;;;;;;;;;;;;;;10.19;100.00;99878.64;1780637;81;20203;-72
2021/05/12 06:12:17;;;;;;;;;;;;;;;10.25;100.00;99883.86;1780594;81;20654;-75
2021/05/12 06:15:02;;;;;;;;;;;;;;;10.11;100.00;99876.47;1781070;81;20167;-72
2021/05/12 06:17:47;;;;;;;;;;;;;;;9.95;100.00;99875.98;1781313;81;20185;-71
2021/05/12 06:20:32;;;;;;;;;;;;;;;9.78;100.00;99876.52;1780390;80;20162;-70
2021/05/12 06:23:16;;;;;;;;;;;;;;;9.63;100.00;99883.95;1780721;80;20244;-73
2021/05/12 06:25:57;;;;;;;;;;;;;;;9.59;100.00;99878.54;1725459;83;20170;-71
2021/05/12 06:28:28;;;;;;;;;;;;;;;9.62;100.00;99881.42;1658762;85;20515;-73
2021/05/12 06:31:13;;;;;;;;;;;;;;;9.67;100.00;99873.67;1658282;86;20171;-73
2021/05/12 06:33:59;;;;;;;;;;;;;;;9.73;100.00;99887.82;1657718;86;20183;-75
2021/05/12 06:36:44;;;;;;;;;;;;;;;9.69;100.00;99881.92;1658146;86;20182;-74
2021/05/12 06:39:29;;;;;;;;;;;;;;;9.65;100.00;99880.58;1658460;86;20155;-75
2021/05/12 06:41:56;;;;;;;;;;;;;;;9.57;100.00;99890.02;1658090;87;20191;-72
2021/05/12 06:44:22;;;;;;;;;;;;;;;9.53;100.00;99890.02;1658080;87;20267;-73
2021/05/12 06:46:51;;;;;;;;;;;;;;;9.47;100.00;99899.64;1650441;87;20173;-73
2021/05/12 06:49:18;;;;;;;;;;;;;;;9.39;100.00;99900.97;1649356;86;20541;-73
2021/05/12 06:51:46;;;;;;;;;;;;;;;9.29;100.00;99901.11;1649314;86;20213;-75
2021/05/12 06:54:12;;;;;;;;;;;;;;;9.22;100.00;99908.70;1648955;86;20483;-77
2021/05/12 06:56:38;;;;;;;;;;;;;;;9.15;100.00;99906.32;1649287;86;20538;-74
2021/05/12 06:59:06;;;;;;;;;;;;;;;9.06;100.00;99899.55;1649268;86;20169;-76
2021/05/12 07:01:33;;;;;;;;;;;;;;;8.98;100.00;99900.89;1650253;84;20161;-79
2021/05/12 07:04:00;;;;;;;;;;;;;;;8.93;100.00;99910.81;1694690;84;20677;-80
2021/05/12 07:06:26;;;;;;;;;;;;;;;8.91;100.00;99907.95;1691702;83;20183;-81
2021/05/12 07:08:53;;;;;;;;;;;;;;;8.95;100.00;99908.47;1696618;83;20275;-79
2021/05/12 07:11:21;;;;;;;;;;;;;;;9.01;100.00;99914.06;1698507;83;20175;-78
2021/05/12 07:13:47;;;;;;;;;;;;;;;9.03;100.00;99916.08;1713623;83;20267;-76
2021/05/12 07:16:14;;;;;;;;;;;;;;;9.07;100.00;99909.34;1721707;83;20236;-80
2021/05/12 07:18:40;;;;;;;;;;;;;;;9.11;100.00;99907.16;1725277;83;20273;-83
2021/05/12 07:21:06;;;;;;;;;;;;;;;9.19;100.00;99903.14;1712297;83;20207;-78
2021/05/12 07:23:33;;;;;;;;;;;;;;;9.24;100.00;99898.58;1725660;83;20209;-82
2021/05/12 07:25:59;;;;;;;;;;;;;;;9.22;100.00;99906.83;1703411;83;20208;-79
2021/05/12 07:28:26;;;;;;;;;;;;;;;9.19;100.00;99904.48;1690300;84;20182;-80
2021/05/12 07:30:52;;;;;;;;;;;;;;;9.22;100.00;99896.55;1704301;83;20155;-81
2021/05/12 07:33:21;;;;;;;;;;;;;;;9.21;100.00;99896.23;1722914;83;20252;-86
2021/05/12 07:35:47;;;;;;;;;;;;;;;9.19;100.00;99888.30;1661201;83;20181;-83
2021/05/12 07:38:13;;;;;;;;;;;;;;;9.19;100.00;99891.00;1724001;83;20244;-78
2021/05/12 07:40:40;;;;;;;;;;;;;;;9.24;100.00;99885.09;1716282;83;20174;-80
2021/05/12 07:43:10;;;;;;;;;;;;;;;9.37;100.00;99885.45;1691495;84;20226;-77
2021/05/12 07:45:37;;;;;;;;;;;;;;;9.52;100.00;99891.02;1651138;85;20258;-78
2021/05/12 07:48:06;;;;;;;;;;;;;;;9.71;100.00;99893.07;1718966;84;20167;-79
2021/05/12 07:50:32;;;;;;;;;;;;;;;9.94;100.00;99883.77;1654485;87;20525;-73
2021/05/12 07:53:00;;;;;;;;;;;;;;;10.23;100.00;99881.36;1661226;85;20272;-81
2021/05/12 07:55:28;;;;;;;;;;;;;;;10.54;100.00;99868.95;1655065;85;20238;-75
2021/05/12 07:57:55;;;;;;;;;;;;;;;10.77;100.00;99864.97;1676404;83;20222;-76
2021/05/12 08:00:22;;;;;;;;;;;;;;;10.85;100.00;99860.84;1717463;81;20193;-74
2021/05/12 08:02:48;;;;;;;;;;;;;;;10.74;100.00;99857.20;1721511;81;20567;-73
2021/05/12 08:05:15;;;;;;;;;;;;;;;10.53;100.00;99845.62;1759334;81;20142;-76
2021/05/12 08:07:41;;;;;;;;;;;;;;;10.35;100.00;99851.27;1741124;81;20155;-78
2021/05/12 08:10:08;;;;;;;;;;;;;;;10.26;100.00;99851.78;1734745;81;20302;-77
2021/05/12 08:12:35;;;;;;;;;;;;;;;10.25;100.00;99844.67;1741183;81;20571;-79
2021/05/12 08:15:02;;;;;;;;;;;;;;;10.32;100.00;99844.34;1718352;81;20523;-73
2021/05/12 08:17:36;;;;;;;;;;;;;;;10.36;100.00;99837.59;1735663;81;20180;-77
2021/05/12 08:20:15;;;;;;;;;;;;;;;10.43;100.00;99835.88;1721617;81;20274;-79
2021/05/12 08:22:41;;;;;;;;;;;;;;;10.47;100.00;99827.42;1723893;81;20152;-73
2021/05/12 08:25:08;;;;;;;;;;;;;;;10.51;100.00;99828.75;1722422;81;20165;-71
2021/05/12 08:27:35;;;;;;;;;;;;;;;10.57;100.00;99822.13;1708593;81;20257;-74
2021/05/12 08:30:03;;;;;;;;;;;;;;;10.65;100.00;99826.64;1716628;83;20206;-76
2021/05/12 08:32:30;;;;;;;;;;;;;;;10.68;100.00;99824.95;1712469;81;20239;-71
2021/05/12 08:34:57;;;;;;;;;;;;;;;10.66;100.00;99819.37;1751014;81;20173;-72
2021/05/12 08:37:24;;;;;;;;;;;;;;;10.60;100.00;99820.92;1746894;81;20551;-73
2021/05/12 08:39:50;;;;;;;;;;;;;;;10.59;100.00;99821.96;1749179;81;20156;-73
2021/05/12 08:42:16;;;;;;;;;;;;;;;10.60;100.00;99818.22;1734421;81;20206;-76
2021/05/12 08:44:43;;;;;;;;;;;;;;;10.67;100.00;99819.20;1713078;81;20157;-75
2021/05/12 08:47:09;;;;;;;;;;;;;;;10.81;100.00;99811.67;1728095;81;20259;-75
2021/05/12 08:49:36;;;;;;;;;;;;;;;11.16;100.00;99803.17;1691151;83;20259;-78
2021/05/12 08:52:03;;;;;;;;;;;;;;;11.64;100.00;99797.01;1712112;83;20205;-75
2021/05/12 08:54:29;;;;;;;;;;;;;;;12.09;100.00;99790.30;1778234;80;20273;-72
2021/05/12 08:56:56;;;;;;;;;;;;;;;12.55;100.00;99780.57;1771749;80;20226;-82
2021/05/12 08:59:22;;;;;;;;;;;;;;;13.04;100.00;99783.10;1779772;80;20162;-77
2021/05/12 09:01:48;;;;;;;;;;;;;;;13.54;100.00;99775.84;1778385;80;20317;-78
2021/05/12 09:04:15;;;;;;;;;;;;;;;13.89;100.00;99759.59;1782499;80;20214;-76
2021/05/12 09:06:41;;;;;;;;;;;;;;;14.13;100.00;99750.61;1771239;80;20183;-76
2021/05/12 09:11:43;;;;;;;;;;;;;;;14.93;100.00;99752.31;1705372;84;20188;-82
2021/05/12 09:14:33;;;;;;;;;;;;;;;15.33;100.00;99745.02;1721959;82;20444;-77
2021/05/12 09:17:03;;;;;;;;;;;;;;;15.60;100.00;99745.01;1731143;82;20220;-74
2021/05/12 09:19:30;;;;;;;;;;;;;;;15.42;100.00;99740.70;1731973;82;20182;-76
2021/05/12 09:21:57;;;;;;;;;;;;;;;15.02;100.00;99735.25;1716841;82;20224;-79
2021/05/12 09:24:28;;;;;;;;;;;;;;;14.72;100.00;99732.36;1715871;82;20614;-76
2021/05/12 09:26:58;;;;;;;;;;;;;;;14.40;100.00;99736.10;1713678;82;20223;-73
2021/05/12 09:29:30;;;;;;;;;;;;;;;14.10;100.00;99734.73;1618172;89;20154;-77
2021/05/12 09:32:05;;;;;;;;;;;;;;;13.96;100.00;99726.48;1600252;89;20219;-80
2021/05/12 09:34:51;;;;;;;;;;;;;;;14.14;100.00;99725.12;1576542;91;20506;-80
2021/05/12 09:37:33;;;;;;;;;;;;;;;14.56;100.00;99725.38;1541443;92;20172;-79
2021/05/12 09:40:07;;;;;;;;;;;;;;;14.92;100.00;99720.67;1539410;93;20160;-77
2021/05/12 09:42:35;;;;;;;;;;;;;;;15.05;100.00;99719.84;1550656;92;20567;-77
2021/05/12 09:45:09;;;;;;;;;;;;;;;14.93;100.00;99711.47;1599483;89;20204;-73
2021/05/12 09:47:35;;;;;;;;;;;;;;;14.58;100.00;99714.33;1579131;89;20184;-77
2021/05/12 09:50:11;;;;;;;;;;;;;;;14.20;100.00;99713.41;1544645;92;20231;-76
2021/05/12 09:52:37;;;;;;;;;;;;;;;13.85;100.00;99710.75;1543872;92;20186;-76
2021/05/12 09:55:05;;;;;;;;;;;;;;;13.57;100.00;99712.98;1557598;91;20529;-79
2021/05/12 09:57:31;;;;;;;;;;;;;;;13.65;100.00;99714.20;1556032;92;20190;-80
2021/05/12 09:59:58;;;;;;;;;;;;;;;13.92;100.00;99714.34;1555002;92;20191;-74
2021/05/12 10:02:24;;;;;;;;;;;;;;;13.87;100.00;99712.75;1541984;92;20198;-79
2021/05/12 10:04:51;;;;;;;;;;;;;;;13.61;100.00;99712.06;1556479;90;20178;-76
2021/05/12 10:07:25;;;;;;;;;;;;;;;13.42;100.00;99712.23;1526372;94;20202;-78
2021/05/12 10:09:53;;;;;;;;;;;;;;;13.34;100.00;99728.69;1556168;91;20156;-74
2021/05/12 10:12:25;;;;;;;;;;;;;;;13.16;100.00;99726.43;1546488;90;20199;-77
2021/05/12 10:14:55;;;;;;;;;;;;;;;13.03;100.00;99729.84;1557690;90;20209;-74
2021/05/12 10:17:22;;;;;;;;;;;;;;;12.96;100.00;99728.45;1569291;91;20172;-75
2021/05/12 10:19:50;;;;;;;;;;;;;;;13.01;100.00;99730.56;1577695;88;20184;-79
2021/05/12 10:22:18;;;;;;;;;;;;;;;13.08;100.00;99721.95;1618195;88;20187;-78
2021/05/12 10:24:46;;;;;;;;;;;;;;;13.07;100.00;99718.94;1637956;87;20584;-76
2021/05/12 10:27:22;;;;;;;;;;;;;;;13.11;100.00;99715.62;1628915;87;20254;-74
2021/05/12 10:29:57;;;;;;;;;;;;;;;13.26;100.00;99716.91;1624545;87;20197;-73
2021/05/12 10:32:33;;;;;;;;;;;;;;;13.35;100.00;99705.91;1659056;84;20181;-74
2021/05/12 10:35:09;;;;;;;;;;;;;;;13.35;100.00;99704.56;1688166;84;20254;-80
2021/05/12 10:37:36;;;;;;;;;;;;;;;13.24;100.00;99709.98;1686374;84;20232;-79
2021/05/12 10:40:05;;;;;;;;;;;;;;;13.02;100.00;99714.08;1688040;84;20234;-77
2021/05/12 10:42:57;;;;;;;;;;;;;;;12.82;100.00;99711.19;1691125;83;20222;-78
2021/05/12 10:45:51;;;;;;;;;;;;;;;12.66;100.00;99719.06;1680179;84;20228;-82
2021/05/12 10:48:36;;;;;;;;;;;;;;;12.45;100.00;99720.40;1701223;82;20180;-75
2021/05/12 10:51:06;;;;;;;;;;;;;;;12.33;100.00;99716.80;1716016;82;20228;-79
2021/05/12 10:53:38;;;;;;;;;;;;;;;12.24;100.00;99717.95;1669179;85;20622;-77
2021/05/12 10:56:05;;;;;;;;;;;;;;;12.13;100.00;99746.91;1583860;88;20720;-75
2021/05/12 10:58:38;;;;;;;;;;;;;;;11.92;100.00;99747.66;1592664;89;20246;-77
2021/05/12 11:01:07;;;;;;;;;;;;;;;11.56;100.00;99753.25;1608149;88;20209;-81
2021/05/12 11:03:53;;;;;;;;;;;;;;;11.26;100.00;99748.30;1594947;88;20187;-77
2021/05/12 11:06:24;;;;;;;;;;;;;;;10.92;100.00;99748.72;1612480;88;20201;-78
2021/05/12 11:09:14;;;;;;;;;;;;;;;10.55;100.00;99767.41;1575331;91;20231;-81
2021/05/12 11:11:53;;;;;;;;;;;;;;;10.21;100.00;99775.80;1578109;91;20192;-76
2021/05/12 11:14:24;;;;;;;;;;;;;;;9.85;100.00;99783.84;1549998;91;20509;-83
2021/05/12 11:17:14;;;;;;;;;;;;;;;9.64;100.00;99792.49;1546289;92;20227;-77
2021/05/12 11:19:59;;;;;;;;;;;;;;;9.49;100.00;99806.33;1536186;93;20195;-80
2021/05/12 11:33:31;;;;;;;;;;;;;;;8.96;100.00;99787.44;1539815;92;20191;-71
2021/05/12 11:36:02;;;;;;;;;;;;;;;8.94;100.00;99784.91;1546774;92;20180;-73
2021/05/12 11:38:27;;;;;;;;;;;;;;;9.02;100.00;99781.39;1513337;93;20207;-72
2021/05/12 11:40:59;;;;;;;;;;;;;;;9.09;100.00;99790.50;1530533;94;20229;-74
2021/05/12 11:43:46;;;;;;;;;;;;;;;9.17;100.00;99791.86;1512429;94;20243;-74
2021/05/12 11:46:16;;;;;;;;;;;;;;;9.30;100.00;99790.84;1529376;92;20188;-71
2021/05/12 11:48:44;;;;;;;;;;;;;;;9.45;100.00;99793.69;1539322;93;20198;-72
2021/05/12 11:51:12;;;;;;;;;;;;;;;9.55;100.00;99792.69;1578418;90;20243;-71
2021/05/12 11:53:40;;;;;;;;;;;;;;;9.60;100.00;99785.76;1579920;90;20280;-72
2021/05/12 11:56:07;;;;;;;;;;;;;;;9.68;100.00;99777.66;1576875;90;20215;-73
2021/05/12 11:58:34;;;;;;;;;;;;;;;9.81;100.00;99785.22;1589395;87;20266;-73
2021/05/12 12:01:06;;;;;;;;;;;;;;;9.94;100.00;99786.02;1680598;85;20219;-72
2021/05/12 12:03:33;;;;;;;;;;;;;;;10.10;100.00;99782.42;1686786;85;20178;-71
2021/05/12 12:06:03;;;;;;;;;;;;;;;10.29;100.00;99775.77;1673247;85;20497;-72
2021/05/12 12:08:30;;;;;;;;;;;;;;;10.53;100.00;99778.05;1677854;85;20486;-72
2021/05/12 12:11:07;;;;;;;;;;;;;;;10.72;100.00;99782.17;1685330;85;20533;-71
2021/05/12 12:13:33;;;;;;;;;;;;;;;10.97;100.00;99776.91;1725908;82;20241;-73
2021/05/12 12:16:00;;;;;;;;;;;;;;;11.18;100.00;99770.84;1745505;82;20218;-72
2021/05/12 12:18:31;;;;;;;;;;;;;;;11.33;100.00;99768.19;1717427;82;20171;-73
2021/05/12 12:20:58;;;;;;;;;;;;;;;11.39;100.00;99766.62;1711328;84;20167;-73
2021/05/12 12:23:27;;;;;;;;;;;;;;;11.42;100.00;99761.33;1711181;84;20148;-71
2021/05/12 12:26:15;;;;;;;;;;;;;;;11.51;100.00;99757.02;1665779;86;20170;-72
2021/05/12 12:28:42;;;;;;;;;;;;;;;11.77;100.00;99749.83;1656115;87;20150;-71
2021/05/12 12:31:19;;;;;;;;;;;;;;;12.11;100.00;99756.58;1665842;85;20198;-72
2021/05/12 12:34:08;;;;;;;;;;;;;;;12.27;100.00;99743.83;1681304;85;20206;-72
2021/05/12 12:36:46;;;;;;;;;;;;;;;12.42;100.00;99739.75;1681273;85;20170;-71
2021/05/12 12:39:12;;;;;;;;;;;;;;;12.61;100.00;99738.31;1688373;82;20280;-74
2021/05/12 12:41:39;;;;;;;;;;;;;;;12.77;100.00;99738.59;1744938;82;20169;-70
2021/05/12 12:44:05;;;;;;;;;;;;;;;12.86;100.00;99726.56;1744915;82;20165;-73
2021/05/12 12:46:33;;;;;;;;;;;;;;;12.84;100.00;99717.26;1719558;82;20221;-71
2021/05/12 12:48:59;;;;;;;;;;;;;;;12.69;100.00;99715.11;1704562;84;20280;-71
2021/05/12 12:51:37;;;;;;;;;;;;;;;12.49;100.00;99705.41;1709893;83;20200;-68
2021/05/12 12:54:04;;;;;;;;;;;;;;;12.44;100.00;99704.63;1667786;86;20236;-71
2021/05/12 12:56:31;;;;;;;;;;;;;;;12.45;100.00;99706.31;1665454;86;20311;-70
2021/05/12 12:59:11;;;;;;;;;;;;;;;12.35;100.00;99702.54;1665002;86;20152;-72
2021/05/12 13:01:38;;;;;;;;;;;;;;;12.18;100.00;99698.89;1624538;88;20171;-71
2021/05/12 13:04:17;;;;;;;;;;;;;;;12.05;100.00;99697.69;1579113;91;20179;-71
2021/05/12 13:06:43;;;;;;;;;;;;;;;11.95;100.00;99700.71;1604596;89;20523;-69
2021/05/12 13:09:25;;;;;;;;;;;;;;;11.94;100.00;99705.80;1604744;89;20169;-72